Ban Baen Chado, Thailand

8:30 PM +07 on April 29, 2017 (GMT +0700)
นวมินทร์ 74 แยก 3-8-21 | | Change Station

Elev 13 ft 13.81 °N, 100.67 °E | Updated 7 minutes ago

Clear
Clear
88.7 °F
Feels Like 102 °F
N
0.0
Wind Variable Wind from North
Gusts 0.6 mph

Today
High -- | Low -- °F
--% Chance of Precip.
Yesterday
High -- | Low -- °F
Precip. -- in
Pressure 29.83 in
Visibility 6.2 miles
Clouds Few 2000 ft
Heat Index 102 °F
Dew Point 78 °F
Humidity 69%
Rainfall 0.00 in
Snow Depth Not available.
5:56 AM 6:32 PM
Waxing Crescent, 13% visible
METAR VTBD 291300Z 00000KT 9999 FEW020 30/25 Q1010 NOSIG
Pressure 29.83 in
Visibility 6.2 miles
Clouds Few 2000 ft
Heat Index 102 °F
Dew Point 78 °F
Humidity 69%
Rainfall 0.00 in
Snow Depth Not available.
5:56 AM 6:32 PM
Waxing Crescent, 13% visible
METAR VTBD 291300Z 00000KT 9999 FEW020 30/25 Q1010 NOSIG

Get Severe Weather Alerts

Thanks for signing up!

Be on the lookout for a verification email in your inbox.

You'll start receiving the daily forecast at 8 AM.

×

10-Day Weather Forecast

No radar image for this location.
×

Almanac

Astronomy

Apr. 29, 2017 Rise Set
Actual Time
Civil Twilight
Nautical Twilight
Astronomical Twilight
Moon
Length of Visible Light
Length of Day
Tomorrow will be .
, % of the Moon is Illuminated

Today's Extremes

Country Highs Country Lows

Community

WunderPhotos

WunderBlog® & News

Nearby

Air Quality

  Air Quality AQ Index Pollutant
Not available.

Snow Depth

Station Depth Elevation

Earthquake Activity

City Distance Mag. Time & Date
Minimum magnitude displayed is 2.5.

Coastal Water Temperatures

Place Temperature

Stations

Nearby Weather Stations

Station Location Temp. Windchill Dew Point Humidity Wind Precip. Elev Updated Type